Time;durP1;ratioP1;P1;durP2;ratioP2;P2;SDS_P1;SDS_P2;PMS_P1;PMS_P2;Temp;Humidity;BMP_temperature;BMP_pressure;BME280_temperature;BME280_humidity;BME280_pressure;Samples;Min_cycle;Max_cycle;Signal;HPM_P1;HPM_P2
2022/03/24 00:02:26;;;;;;;21.63;14.60;;;8.70;51.20;;;;;;4975524;28;20046;-47
2022/03/24 00:04:55;;;;;;;23.52;15.35;;;8.70;51.30;;;;;;4982169;28;20070;-52
2022/03/24 00:07:22;;;;;;;20.67;14.45;;;8.60;51.30;;;;;;4971757;28;20443;-49
2022/03/24 00:09:52;;;;;;;20.52;14.30;;;8.60;51.40;;;;;;4972996;28;20485;-47
2022/03/24 00:12:27;;;;;;;20.55;14.73;;;8.60;51.50;;;;;;4980759;28;20097;-49
2022/03/24 00:14:54;;;;;;;21.77;14.90;;;8.50;51.50;;;;;;4970861;28;20470;-51
2022/03/24 00:17:21;;;;;;;21.15;14.70;;;8.50;51.50;;;;;;4970198;28;20097;-46
2022/03/24 00:19:48;;;;;;;23.90;15.75;;;8.50;51.60;;;;;;4980427;28;20653;-47
2022/03/24 00:22:15;;;;;;;21.92;15.02;;;8.40;51.60;;;;;;4980296;28;20105;-49
2022/03/24 00:24:57;;;;;;;23.25;15.32;;;8.40;51.60;;;;;;4969627;28;20046;-49
2022/03/24 00:27:24;;;;;;;21.20;14.93;;;8.40;52.80;;;;;;4971448;28;20387;-48
2022/03/24 00:29:55;;;;;;;27.00;15.52;;;8.40;52.40;;;;;;4988663;28;20045;-47
2022/03/24 00:32:24;;;;;;;22.55;15.90;;;8.30;51.80;;;;;;4975886;28;20037;-46
2022/03/24 00:34:54;;;;;;;25.63;17.20;;;8.30;51.90;;;;;;4988943;28;20043;-47
2022/03/24 00:37:25;;;;;;;22.55;16.23;;;8.30;52.00;;;;;;4991882;28;20042;-49
2022/03/24 00:39:51;;;;;;;22.30;15.52;;;8.30;51.90;;;;;;4981010;28;20049;-49
2022/03/24 00:42:21;;;;;;;23.80;15.65;;;8.30;52.00;;;;;;4982784;28;20054;-47
2022/03/24 00:44:51;;;;;;;23.73;15.88;;;8.20;52.00;;;;;;4988826;28;20050;-48
2022/03/24 00:47:21;;;;;;;23.77;16.48;;;8.20;51.90;;;;;;4967671;28;20458;-49
2022/03/24 00:49:49;;;;;;;26.13;16.63;;;8.20;52.00;;;;;;4977870;28;20046;-48
2022/03/24 00:52:17;;;;;;;25.13;16.75;;;8.10;52.20;;;;;;5004713;28;20050;-48
2022/03/24 00:54:47;;;;;;;25.85;15.40;;;8.10;52.10;;;;;;4980647;28;20503;-48
2022/03/24 00:57:16;;;;;;;22.67;15.15;;;8.10;52.20;;;;;;4975149;28;20081;-46
2022/03/24 00:59:43;;;;;;;22.85;16.33;;;8.10;52.10;;;;;;4982164;28;20053;-50
2022/03/24 01:02:10;;;;;;;23.95;16.75;;;8.10;52.20;;;;;;4985132;28;20046;-48
2022/03/24 01:04:41;;;;;;;25.65;16.65;;;8.00;52.20;;;;;;4963864;28;20035;-49
2022/03/24 01:07:09;;;;;;;24.48;16.02;;;8.00;52.40;;;;;;4986974;28;20038;-46
2022/03/24 01:09:36;;;;;;;23.38;15.02;;;8.00;52.30;;;;;;4981726;28;20034;-50
2022/03/24 01:12:11;;;;;;;22.42;15.93;;;7.90;52.40;;;;;;4970578;28;20050;-48
2022/03/24 01:14:38;;;;;;;22.98;15.52;;;8.00;53.00;;;;;;4980185;28;20090;-49
2022/03/24 01:17:07;;;;;;;23.90;16.13;;;7.90;52.80;;;;;;4985493;28;20046;-48
2022/03/24 01:19:35;;;;;;;25.00;16.02;;;7.90;52.80;;;;;;4982626;28;20073;-46
2022/03/24 01:22:03;;;;;;;21.98;15.30;;;8.00;52.80;;;;;;4972752;28;20073;-47
2022/03/24 01:24:30;;;;;;;24.55;15.65;;;7.90;52.80;;;;;;4982977;28;20043;-47
2022/03/24 01:26:57;;;;;;;25.52;15.15;;;7.90;52.80;;;;;;4986541;28;20089;-47
2022/03/24 01:29:27;;;;;;;21.50;14.90;;;7.90;52.70;;;;;;4997477;28;20038;-49
2022/03/24 01:31:59;;;;;;;23.15;15.52;;;7.80;52.70;;;;;;4987086;28;20056;-51
2022/03/24 01:34:26;;;;;;;24.25;15.57;;;7.80;52.70;;;;;;4980045;28;20053;-47
2022/03/24 01:36:53;;;;;;;24.45;16.10;;;7.80;52.80;;;;;;4978897;28;20055;-46
2022/03/24 01:39:20;;;;;;;26.23;17.05;;;7.80;52.90;;;;;;4949176;29;20062;-47
2022/03/24 01:41:47;;;;;;;25.23;16.45;;;7.70;53.00;;;;;;4943460;28;20121;-48
2022/03/24 01:44:16;;;;;;;25.75;15.77;;;7.80;53.20;;;;;;4982149;28;20049;-50
2022/03/24 01:47:07;;;;;;;22.75;15.30;;;7.70;53.00;;;;;;4980518;28;20049;-46
2022/03/24 01:49:40;;;;;;;25.80;16.20;;;7.80;54.10;;;;;;5004709;28;20039;-48
2022/03/24 01:52:12;;;;;;;24.30;15.90;;;7.70;53.20;;;;;;4975164;28;20053;-51
2022/03/24 01:54:46;;;;;;;24.47;16.33;;;7.70;53.10;;;;;;4981362;28;20222;-48
2022/03/24 01:57:15;;;;;;;21.77;15.48;;;7.70;53.10;;;;;;5003860;28;20065;-48
2022/03/24 01:59:42;;;;;;;24.77;16.58;;;7.70;53.10;;;;;;4979673;28;20046;-46
2022/03/24 02:02:10;;;;;;;22.02;16.25;;;7.70;53.10;;;;;;4978523;28;20181;-47
2022/03/24 02:04:38;;;;;;;27.63;16.58;;;7.70;53.20;;;;;;4996104;28;20550;-49
2022/03/24 02:07:06;;;;;;;23.42;15.52;;;7.70;53.10;;;;;;4985167;28;20042;-47
2022/03/24 02:09:34;;;;;;;21.92;14.90;;;7.60;53.00;;;;;;4988889;28;20051;-48
2022/03/24 02:12:04;;;;;;;21.98;16.10;;;7.60;53.00;;;;;;4972109;28;20418;-48
2022/03/24 02:14:31;;;;;;;27.02;17.02;;;7.60;53.20;;;;;;4984846;28;20149;-46
2022/03/24 02:16:58;;;;;;;24.58;16.15;;;7.60;53.20;;;;;;4970384;28;20057;-48
2022/03/24 02:19:28;;;;;;;25.27;15.80;;;7.60;53.20;;;;;;4975058;28;20038;-46
2022/03/24 02:21:57;;;;;;;27.27;18.92;;;7.50;53.20;;;;;;4989311;28;20050;-50
2022/03/24 02:24:25;;;;;;;26.30;17.48;;;7.50;53.40;;;;;;4973482;28;20574;-46
2022/03/24 02:26:53;;;;;;;25.05;16.83;;;7.50;53.60;;;;;;4971851;28;20456;-49
2022/03/24 02:29:25;;;;;;;25.63;16.58;;;7.50;53.60;;;;;;4972106;28;20061;-49
2022/03/24 02:31:53;;;;;;;25.75;16.38;;;7.50;53.60;;;;;;4992769;28;20045;-49
2022/03/24 02:34:37;;;;;;;24.50;15.05;;;7.50;53.60;;;;;;4984146;28;20097;-49
2022/03/24 02:37:08;;;;;;;26.75;17.40;;;7.50;53.50;;;;;;4989115;28;20105;-48
2022/03/24 02:39:46;;;;;;;16.23;11.73;;;7.50;53.60;;;;;;4971319;28;20038;-46
2022/03/24 02:42:16;;;;;;;20.40;14.70;;;7.50;53.60;;;;;;4988722;28;20038;-50
2022/03/24 02:44:45;;;;;;;30.35;17.23;;;7.50;53.40;;;;;;4987221;28;20124;-48
2022/03/24 02:47:12;;;;;;;26.23;17.13;;;7.50;53.50;;;;;;4986809;28;20083;-47
2022/03/24 02:49:43;;;;;;;24.77;16.17;;;7.40;53.40;;;;;;4988495;28;20414;-47
2022/03/24 02:52:10;;;;;;;21.23;16.27;;;7.40;53.50;;;;;;4983182;28;20034;-49
2022/03/24 02:54:37;;;;;;;25.15;16.85;;;7.40;53.40;;;;;;4992148;28;20066;-46
2022/03/24 02:57:10;;;;;;;23.83;16.50;;;7.40;53.40;;;;;;4981984;28;20054;-47
2022/03/24 02:59:38;;;;;;;25.27;16.73;;;7.30;53.30;;;;;;4983650;28;20093;-47
2022/03/24 03:02:17;;;;;;;24.85;16.42;;;7.30;53.30;;;;;;4983142;28;20043;-47
2022/03/24 03:04:53;;;;;;;25.85;16.40;;;7.30;53.30;;;;;;4986525;28;20049;-50
2022/03/24 03:07:21;;;;;;;24.02;15.80;;;7.20;53.30;;;;;;4982096;28;20038;-46
2022/03/24 03:09:48;;;;;;;25.35;15.65;;;7.20;53.40;;;;;;4984033;28;20096;-50
2022/03/24 03:12:18;;;;;;;24.55;15.30;;;7.20;53.40;;;;;;4970842;28;20042;-48
2022/03/24 03:14:47;;;;;;;23.00;14.95;;;7.10;53.30;;;;;;4978699;28;20548;-47
2022/03/24 03:17:15;;;;;;;27.35;16.98;;;7.00;53.20;;;;;;4975567;28;20054;-46
2022/03/24 03:19:45;;;;;;;25.08;17.08;;;7.10;53.50;;;;;;4985972;28;20552;-47
2022/03/24 03:22:13;;;;;;;28.05;16.55;;;7.00;53.60;;;;;;4971753;28;20043;-47
2022/03/24 03:24:40;;;;;;;23.38;15.32;;;7.00;53.60;;;;;;4969892;28;20051;-50
2022/03/24 03:27:12;;;;;;;26.35;16.50;;;6.90;53.50;;;;;;4986241;28;20409;-49
2022/03/24 03:29:39;;;;;;;27.60;17.60;;;6.90;53.60;;;;;;4984005;28;20096;-47
2022/03/24 03:32:07;;;;;;;30.38;18.45;;;6.90;53.70;;;;;;4991147;28;20105;-46
2022/03/24 03:34:34;;;;;;;25.70;15.85;;;6.90;53.90;;;;;;4972451;28;20066;-46
2022/03/24 03:37:01;;;;;;;29.75;18.10;;;6.80;53.90;;;;;;4984865;28;20046;-46
2022/03/24 03:39:30;;;;;;;31.75;18.92;;;6.80;54.00;;;;;;4983996;28;20093;-49
2022/03/24 03:42:01;;;;;;;28.20;17.67;;;6.80;54.00;;;;;;4987231;28;20728;-46
2022/03/24 03:44:28;;;;;;;28.30;17.98;;;6.80;54.00;;;;;;4980110;28;20034;-47
2022/03/24 03:46:54;;;;;;;28.65;17.83;;;6.80;54.00;;;;;;4982008;28;20502;-48
2022/03/24 03:49:21;;;;;;;29.75;18.05;;;6.80;54.00;;;;;;4989980;28;20093;-48
2022/03/24 03:52:00;;;;;;;29.50;17.40;;;6.70;54.00;;;;;;4985310;28;20042;-47
2022/03/24 03:54:29;;;;;;;28.40;18.55;;;6.70;54.10;;;;;;4979931;28;20495;-47
2022/03/24 03:56:56;;;;;;;29.30;17.92;;;6.70;54.10;;;;;;4989271;28;20042;-46
2022/03/24 03:59:22;;;;;;;27.13;16.80;;;6.70;54.10;;;;;;4983763;28;20051;-47
2022/03/24 04:01:49;;;;;;;25.77;17.15;;;6.70;54.00;;;;;;4981142;28;20047;-46
2022/03/24 04:04:16;;;;;;;25.33;16.40;;;6.70;54.00;;;;;;4985154;28;20132;-47
2022/03/24 04:06:45;;;;;;;27.48;17.60;;;6.60;54.00;;;;;;4984208;28;20038;-47
2022/03/24 04:09:13;;;;;;;28.65;17.48;;;6.60;54.00;;;;;;4978221;28;20414;-46
2022/03/24 04:11:42;;;;;;;31.33;17.20;;;6.60;54.10;;;;;;4978064;28;20042;-48
2022/03/24 04:14:09;;;;;;;28.20;17.33;;;6.50;54.10;;;;;;4977685;28;20101;-46
2022/03/24 04:16:36;;;;;;;28.05;17.08;;;6.50;54.10;;;;;;4977121;28;20050;-49
2022/03/24 04:19:05;;;;;;;29.10;17.75;;;6.50;54.20;;;;;;4971278;28;20061;-46
2022/03/24 04:21:39;;;;;;;28.50;18.05;;;6.50;54.40;;;;;;4968707;28;20057;-47
2022/03/24 04:24:07;;;;;;;27.00;17.27;;;6.50;54.90;;;;;;4987033;28;20050;-46
2022/03/24 04:26:34;;;;;;;28.58;17.25;;;6.40;54.40;;;;;;4980797;28;20034;-49
2022/03/24 04:29:00;;;;;;;28.27;17.02;;;6.40;54.50;;;;;;4991081;28;20046;-46
2022/03/24 04:31:27;;;;;;;25.02;16.42;;;6.40;54.50;;;;;;4976459;28;20043;-48
2022/03/24 04:33:54;;;;;;;27.42;16.90;;;6.40;54.60;;;;;;4987290;28;20042;-47
2022/03/24 04:36:26;;;;;;;27.42;17.10;;;6.40;54.70;;;;;;4973301;28;20121;-46
2022/03/24 04:38:54;;;;;;;31.17;18.42;;;6.40;55.00;;;;;;4990079;28;20046;-47
2022/03/24 04:41:23;;;;;;;32.15;19.23;;;6.30;54.80;;;;;;4980254;28;20046;-50
2022/03/24 04:43:50;;;;;;;32.17;19.63;;;6.30;54.80;;;;;;4982004;28;20140;-49
2022/03/24 04:46:18;;;;;;;37.08;18.90;;;6.30;54.90;;;;;;4988371;28;20042;-46
2022/03/24 04:48:45;;;;;;;31.40;20.15;;;6.30;54.90;;;;;;4977431;28;20038;-48
2022/03/24 04:51:12;;;;;;;32.08;20.92;;;6.30;54.90;;;;;;4976706;28;20043;-48
2022/03/24 04:53:39;;;;;;;33.28;18.70;;;6.30;54.90;;;;;;4980337;28;20035;-48
2022/03/24 04:56:16;;;;;;;31.75;19.20;;;6.30;54.90;;;;;;4980312;28;20042;-47
2022/03/24 04:58:42;;;;;;;32.28;19.65;;;6.30;55.00;;;;;;4990142;28;20066;-47
2022/03/24 05:01:13;;;;;;;33.50;20.10;;;6.30;55.00;;;;;;4995420;28;20050;-50
2022/03/24 05:03:46;;;;;;;33.08;18.75;;;6.30;55.00;;;;;;4983304;28;20058;-46
2022/03/24 05:06:15;;;;;;;35.50;21.90;;;6.30;55.00;;;;;;4999739;28;20446;-48
2022/03/24 05:08:41;;;;;;;33.17;21.52;;;6.30;55.00;;;;;;4972331;28;20062;-46
2022/03/24 05:11:08;;;;;;;33.80;20.05;;;6.20;55.00;;;;;;4985426;28;20050;-49
2022/03/24 05:13:36;;;;;;;34.97;22.05;;;6.20;55.00;;;;;;4982590;28;20046;-48
2022/03/24 05:16:03;;;;;;;32.63;20.60;;;6.20;55.60;;;;;;4965244;28;20042;-47
2022/03/24 05:18:31;;;;;;;31.05;19.67;;;6.20;54.90;;;;;;4978839;28;20203;-47
2022/03/24 05:20:58;;;;;;;31.40;20.27;;;6.20;55.00;;;;;;4978199;28;20042;-46
2022/03/24 05:23:30;;;;;;;34.22;21.80;;;6.10;55.00;;;;;;4971211;28;20524;-47
2022/03/24 05:25:59;;;;;;;33.38;19.85;;;6.10;55.00;;;;;;4965135;28;20051;-49
2022/03/24 05:28:26;;;;;;;33.88;20.98;;;6.10;55.10;;;;;;4966619;28;20039;-46
2022/03/24 05:30:53;;;;;;;41.05;22.30;;;6.10;55.30;;;;;;4974106;28;20039;-48
2022/03/24 05:33:20;;;;;;;36.70;22.58;;;6.00;55.40;;;;;;4989640;28;20070;-47
2022/03/24 05:35:47;;;;;;;35.80;22.83;;;6.00;55.70;;;;;;4974746;28;20146;-48
2022/03/24 05:38:15;;;;;;;38.67;22.30;;;6.10;55.90;;;;;;4978899;28;20034;-51
2022/03/24 05:40:41;;;;;;;35.42;22.52;;;6.10;55.90;;;;;;4978727;28;20047;-45
2022/03/24 05:43:08;;;;;;;37.97;21.50;;;6.10;55.90;;;;;;4970142;28;20779;-50
2022/03/24 05:45:35;;;;;;;38.20;21.42;;;6.10;55.90;;;;;;4967948;28;20039;-47
2022/03/24 05:48:02;;;;;;;32.05;21.40;;;6.10;55.90;;;;;;4973396;28;20121;-47
2022/03/24 05:50:45;;;;;;;35.38;21.67;;;6.10;56.00;;;;;;4988955;28;20047;-48
2022/03/24 05:53:16;;;;;;;36.30;21.13;;;6.10;55.90;;;;;;4974475;28;20031;-47
2022/03/24 05:55:44;;;;;;;35.78;21.55;;;6.10;56.50;;;;;;4973827;28;20418;-51
2022/03/24 05:58:16;;;;;;;30.95;20.38;;;6.10;55.90;;;;;;4985053;28;20074;-50
2022/03/24 06:00:47;;;;;;;37.38;23.27;;;6.10;55.90;;;;;;4977638;28;20097;-46
2022/03/24 06:03:15;;;;;;;37.42;22.02;;;6.10;55.90;;;;;;4986763;28;20349;-47
2022/03/24 06:05:44;;;;;;;42.08;22.08;;;6.10;56.00;;;;;;4972432;28;20038;-49
2022/03/24 06:08:11;;;;;;;36.45;23.55;;;6.10;56.20;;;;;;4977424;28;20050;-48
2022/03/24 06:10:39;;;;;;;35.55;21.38;;;6.10;56.30;;;;;;4978662;28;20097;-46
2022/03/24 06:13:06;;;;;;;38.92;22.45;;;6.20;56.40;;;;;;4974009;28;20038;-46
2022/03/24 06:15:33;;;;;;;33.40;20.00;;;6.20;56.50;;;;;;4969840;28;20089;-50
2022/03/24 06:18:00;;;;;;;42.83;24.33;;;6.20;56.60;;;;;;4978521;28;20046;-46
2022/03/24 06:20:27;;;;;;;38.75;24.60;;;6.20;56.70;;;;;;4980786;28;20038;-48
2022/03/24 06:22:54;;;;;;;41.67;25.25;;;6.20;56.90;;;;;;4993644;28;20469;-52
2022/03/24 06:25:21;;;;;;;40.17;23.17;;;6.30;57.20;;;;;;4973655;28;20410;-46
2022/03/24 06:27:48;;;;;;;41.20;23.25;;;6.30;57.20;;;;;;4974119;28;20038;-51
2022/03/24 06:30:16;;;;;;;38.03;24.08;;;6.30;57.20;;;;;;4991743;28;20575;-47
2022/03/24 06:32:46;;;;;;;42.60;25.52;;;6.40;57.30;;;;;;4982386;28;20086;-48
2022/03/24 06:35:13;;;;;;;40.40;25.10;;;6.40;57.50;;;;;;4988933;28;20039;-47
2022/03/24 06:37:40;;;;;;;41.05;24.00;;;6.50;57.40;;;;;;4986776;28;20073;-46
2022/03/24 06:40:11;;;;;;;41.88;23.83;;;6.50;58.10;;;;;;4992679;28;20042;-50
2022/03/24 06:42:38;;;;;;;38.78;24.35;;;6.60;57.90;;;;;;4979030;28;20038;-47
2022/03/24 06:45:06;;;;;;;37.05;24.15;;;6.60;57.60;;;;;;4988360;28;20573;-50
2022/03/24 06:47:34;;;;;;;41.97;25.85;;;6.70;57.70;;;;;;4986302;28;20038;-47
2022/03/24 06:50:00;;;;;;;38.95;24.15;;;6.70;57.70;;;;;;4985991;28;20086;-47
2022/03/24 06:52:27;;;;;;;35.40;22.52;;;6.80;57.80;;;;;;4983405;28;20038;-49
2022/03/24 06:54:54;;;;;;;38.55;23.75;;;6.80;57.70;;;;;;4980731;28;20043;-47
2022/03/24 06:57:21;;;;;;;36.63;22.60;;;6.90;57.80;;;;;;4974486;28;20491;-49
2022/03/24 06:59:48;;;;;;;37.88;24.23;;;6.90;57.80;;;;;;4970116;28;20043;-50
2022/03/24 07:02:15;;;;;;;39.70;23.55;;;7.00;57.90;;;;;;4973788;28;20458;-47
2022/03/24 07:04:42;;;;;;;36.65;23.10;;;7.00;57.90;;;;;;4977767;28;20122;-50
2022/03/24 07:07:08;;;;;;;37.10;23.65;;;7.00;57.90;;;;;;4972649;28;20499;-49
2022/03/24 07:09:35;;;;;;;38.72;23.95;;;7.10;57.90;;;;;;4968689;28;20487;-47
2022/03/24 07:12:02;;;;;;;36.20;22.42;;;7.10;57.90;;;;;;4977822;28;20047;-50
2022/03/24 07:14:29;;;;;;;40.95;25.00;;;7.20;58.10;;;;;;4971353;28;20105;-51
2022/03/24 07:16:56;;;;;;;39.25;24.98;;;7.20;58.20;;;;;;4971909;28;20046;-48
2022/03/24 07:19:25;;;;;;;33.92;24.17;;;7.30;58.40;;;;;;4973688;28;20038;-46
2022/03/24 07:21:55;;;;;;;;;;;7.30;58.50;;;;;;4979561;28;20214;-51
2022/03/24 07:24:23;;;;;;;37.97;22.52;;;7.40;59.10;;;;;;4975989;28;19925;-48
2022/03/24 07:26:52;;;;;;;40.42;23.58;;;7.50;57.70;;;;;;4969938;28;20031;-45
2022/03/24 07:29:19;;;;;;;46.85;24.88;;;7.50;58.10;;;;;;4979659;28;20046;-46
2022/03/24 07:31:45;;;;;;;40.55;23.70;;;7.60;58.30;;;;;;4983932;28;20034;-48
2022/03/24 07:34:12;;;;;;;44.58;26.90;;;7.60;58.40;;;;;;4991317;28;20071;-47
2022/03/24 07:36:41;;;;;;;42.58;26.33;;;7.70;58.70;;;;;;4982040;28;20118;-50
2022/03/24 07:39:08;;;;;;;43.28;26.25;;;7.80;58.80;;;;;;4978683;28;20043;-49
2022/03/24 07:41:35;;;;;;;41.85;25.73;;;7.90;59.00;;;;;;4973966;28;20050;-46
2022/03/24 07:44:02;;;;;;;40.45;26.25;;;8.00;59.10;;;;;;4971065;28;20054;-48
2022/03/24 07:46:29;;;;;;;49.08;29.95;;;8.00;59.20;;;;;;4978231;28;20046;-49
2022/03/24 07:48:55;;;;;;;47.38;27.85;;;8.20;59.40;;;;;;4969653;28;20047;-46
2022/03/24 07:51:23;;;;;;;45.25;26.85;;;8.20;59.60;;;;;;4971584;28;20038;-46
2022/03/24 07:53:58;;;;;;;42.05;27.17;;;8.40;59.60;;;;;;4986846;28;20054;-50
2022/03/24 07:56:25;;;;;;;45.15;28.23;;;8.50;60.00;;;;;;4974882;28;20097;-48
2022/03/24 07:58:57;;;;;;;41.33;27.30;;;8.70;59.30;;;;;;4980974;28;20065;-47
2022/03/24 08:01:39;;;;;;;47.08;28.27;;;8.90;59.30;;;;;;4978793;28;20545;-47
2022/03/24 08:04:06;;;;;;;40.50;25.95;;;9.00;59.20;;;;;;4968936;28;20058;-47
2022/03/24 08:06:35;;;;;;;54.47;29.98;;;9.20;58.50;;;;;;4970393;28;20073;-50
2022/03/24 08:09:02;;;;;;;44.53;28.20;;;9.40;58.40;;;;;;4980583;28;20126;-46
2022/03/24 08:11:29;;;;;;;47.63;29.75;;;9.60;58.10;;;;;;4979277;28;20041;-47
2022/03/24 08:13:57;;;;;;;52.42;30.25;;;9.80;57.70;;;;;;4970698;28;20046;-47
2022/03/24 08:16:24;;;;;;;46.95;30.17;;;9.90;57.20;;;;;;4970179;28;20490;-48
2022/03/24 08:18:51;;;;;;;39.80;28.83;;;10.10;56.80;;;;;;4990514;28;20057;-47
2022/03/24 08:21:18;;;;;;;43.08;29.17;;;10.20;56.60;;;;;;4982036;28;20054;-47
2022/03/24 08:23:45;;;;;;;43.22;28.50;;;10.40;56.70;;;;;;4965887;28;20051;-51
2022/03/24 08:26:14;;;;;;;42.03;29.10;;;10.60;56.80;;;;;;4987586;28;20755;-48
2022/03/24 08:28:41;;;;;;;41.25;30.00;;;10.70;56.70;;;;;;4981532;28;20057;-50
2022/03/24 08:31:08;;;;;;;43.42;27.75;;;10.80;56.50;;;;;;4990625;28;20129;-47
2022/03/24 08:33:35;;;;;;;41.83;28.70;;;10.90;56.00;;;;;;4980535;28;20088;-45
2022/03/24 08:36:01;;;;;;;43.90;29.80;;;11.00;55.70;;;;;;4979023;28;20050;-48
2022/03/24 08:38:28;;;;;;;46.15;29.50;;;11.20;55.40;;;;;;4987031;28;20090;-48
2022/03/24 08:40:55;;;;;;;43.03;29.17;;;11.30;55.20;;;;;;4986186;28;20046;-48
2022/03/24 08:43:22;;;;;;;40.90;27.55;;;11.40;55.10;;;;;;4974334;28;20047;-48
2022/03/24 08:45:49;;;;;;;43.10;28.63;;;11.50;54.90;;;;;;4981794;28;20507;-46
2022/03/24 08:48:15;;;;;;;42.97;28.83;;;11.60;54.70;;;;;;4989931;28;20038;-47
2022/03/24 08:50:42;;;;;;;41.47;26.48;;;11.70;54.50;;;;;;4990293;28;20108;-50
2022/03/24 08:53:10;;;;;;;43.65;28.77;;;11.80;54.10;;;;;;4973265;28;20066;-49
2022/03/24 08:55:37;;;;;;;39.80;28.02;;;11.90;53.90;;;;;;4980897;28;20038;-50
2022/03/24 08:58:04;;;;;;;41.47;28.30;;;12.00;53.90;;;;;;4981991;28;20088;-47
2022/03/24 09:00:31;;;;;;;37.60;26.15;;;12.10;53.70;;;;;;4990036;28;20112;-48
2022/03/24 09:02:59;;;;;;;43.35;27.63;;;12.20;53.30;;;;;;4986993;28;20038;-48
2022/03/24 09:05:26;;;;;;;42.50;27.70;;;12.30;53.10;;;;;;4985199;28;20038;-47
2022/03/24 09:07:53;;;;;;;37.55;25.00;;;12.40;52.70;;;;;;4981183;28;20042;-48
2022/03/24 09:10:20;;;;;;;40.78;27.27;;;12.50;51.60;;;;;;4970819;28;20042;-49
2022/03/24 09:12:47;;;;;;;38.33;26.52;;;12.60;50.80;;;;;;4969408;28;20039;-48
2022/03/24 09:15:18;;;;;;;37.95;25.52;;;12.70;50.80;;;;;;4972949;28;20102;-46
2022/03/24 09:17:46;;;;;;;38.53;24.65;;;12.80;50.90;;;;;;4975248;28;20046;-47
2022/03/24 09:20:14;;;;;;;39.45;27.25;;;13.00;50.70;;;;;;4969743;28;20101;-47
2022/03/24 09:22:43;;;;;;;37.63;25.92;;;13.00;50.00;;;;;;4987540;28;20053;-51
2022/03/24 09:25:12;;;;;;;36.90;24.13;;;13.10;50.00;;;;;;4980770;28;20046;-53
2022/03/24 09:27:40;;;;;;;42.22;26.45;;;13.20;49.50;;;;;;4990047;28;20042;-49
2022/03/24 09:30:08;;;;;;;41.10;25.08;;;13.40;48.90;;;;;;4981313;28;20085;-51
2022/03/24 09:32:35;;;;;;;33.42;23.30;;;13.50;48.70;;;;;;4981045;28;20042;-50
2022/03/24 09:35:04;;;;;;;35.65;24.70;;;13.60;48.40;;;;;;4980843;28;20121;-49
2022/03/24 09:37:32;;;;;;;36.45;24.30;;;13.80;47.90;;;;;;4989977;28;20043;-52
2022/03/24 09:40:00;;;;;;;39.58;26.13;;;13.90;47.20;;;;;;4976160;28;20043;-47
2022/03/24 09:42:31;;;;;;;38.30;26.35;;;14.00;47.10;;;;;;4967589;28;20122;-48
2022/03/24 09:45:00;;;;;;;36.42;26.60;;;14.10;46.30;;;;;;4983522;28;20097;-48
2022/03/24 09:47:28;;;;;;;38.55;25.98;;;14.30;45.90;;;;;;4974748;28;20042;-51
2022/03/24 09:49:56;;;;;;;35.78;26.27;;;14.40;46.10;;;;;;4979935;28;20035;-47
2022/03/24 09:52:24;;;;;;;39.42;27.25;;;14.50;45.90;;;;;;4988029;28;20042;-51
2022/03/24 09:54:52;;;;;;;40.67;27.02;;;14.60;45.60;;;;;;4980751;28;20042;-47
2022/03/24 09:57:20;;;;;;;38.95;25.65;;;14.60;45.00;;;;;;5004688;28;20457;-51
2022/03/24 09:59:47;;;;;;;40.78;28.80;;;14.70;44.60;;;;;;4976901;28;20114;-50
2022/03/24 10:02:14;;;;;;;40.63;28.40;;;14.80;45.10;;;;;;4986897;28;20077;-48
2022/03/24 10:04:49;;;;;;;42.13;29.17;;;14.90;44.70;;;;;;4983304;28;20051;-50
2022/03/24 10:07:23;;;;;;;39.17;27.70;;;15.00;44.50;;;;;;4986065;28;20050;-49
2022/03/24 10:09:55;;;;;;;40.40;30.33;;;15.10;45.00;;;;;;4988719;28;20041;-51
2022/03/24 10:12:36;;;;;;;39.47;26.83;;;15.20;44.30;;;;;;4971282;28;20046;-46
2022/03/24 10:15:10;;;;;;;35.53;23.75;;;15.30;43.50;;;;;;4969943;28;20038;-50
2022/03/24 10:17:40;;;;;;;32.90;22.95;;;15.30;43.00;;;;;;4970666;28;20038;-46
2022/03/24 10:20:12;;;;;;;29.73;21.08;;;15.40;42.00;;;;;;4978482;28;20062;-48
2022/03/24 10:22:51;;;;;;;33.45;23.20;;;15.50;41.70;;;;;;4970432;28;20503;-49
2022/03/24 10:25:23;;;;;;;29.13;20.20;;;15.50;42.00;;;;;;4965118;28;20051;-50
2022/03/24 10:28:00;;;;;;;25.40;17.42;;;15.70;41.70;;;;;;4974125;28;20040;-52
2022/03/24 10:30:51;;;;;;;28.77;19.50;;;15.70;40.60;;;;;;4974027;28;20656;-48
2022/03/24 10:33:37;;;;;;;25.83;18.23;;;15.80;39.70;;;;;;4986447;28;20043;-48
2022/03/24 10:36:13;;;;;;;28.52;20.20;;;15.90;40.10;;;;;;4981955;28;20137;-48
2022/03/24 10:38:43;;;;;;;23.38;16.00;;;16.00;39.80;;;;;;4987121;28;20554;-51
2022/03/24 10:41:17;;;;;;;25.77;15.10;;;16.10;39.10;;;;;;4988840;28;20082;-47
2022/03/24 10:43:45;;;;;;;22.95;15.35;;;16.20;39.00;;;;;;4977261;28;20042;-50
2022/03/24 10:46:22;;;;;;;23.95;13.70;;;16.30;39.20;;;;;;4980646;28;20102;-47
2022/03/24 10:48:50;;;;;;;23.15;14.52;;;16.30;39.50;;;;;;4992864;28;20428;-48
2022/03/24 10:51:25;;;;;;;16.70;9.30;;;16.50;39.10;;;;;;4984707;28;20042;-52
2022/03/24 10:54:02;;;;;;;12.90;7.53;;;16.50;38.50;;;;;;4984053;28;20039;-49
2022/03/24 10:56:39;;;;;;;20.77;12.18;;;16.70;37.80;;;;;;4982510;28;20493;-51
2022/03/24 10:59:06;;;;;;;19.33;12.85;;;16.70;38.20;;;;;;4984475;28;20034;-48
2022/03/24 11:01:34;;;;;;;19.73;10.75;;;16.80;37.60;;;;;;4983970;28;20050;-51
2022/03/24 11:04:01;;;;;;;14.50;10.52;;;16.90;38.30;;;;;;4986962;28;20048;-50
2022/03/24 11:06:28;;;;;;;22.25;12.30;;;16.90;37.30;;;;;;4978657;28;20502;-47
2022/03/24 11:09:00;;;;;;;24.55;13.40;;;17.00;37.10;;;;;;4984380;28;20651;-51
2022/03/24 11:11:28;;;;;;;20.90;14.43;;;17.10;36.90;;;;;;4987846;28;20050;-48
2022/03/24 11:14:03;;;;;;;19.15;13.23;;;17.10;36.90;;;;;;4973274;28;20046;-48
2022/03/24 11:16:32;;;;;;;17.35;11.07;;;17.20;35.70;;;;;;4977404;28;20042;-48
2022/03/24 11:19:01;;;;;;;23.15;15.40;;;17.20;35.50;;;;;;4983705;28;20043;-49
2022/03/24 11:21:31;;;;;;;20.75;15.02;;;17.30;35.10;;;;;;4952605;28;20493;-50
2022/03/24 11:24:01;;;;;;;21.42;16.40;;;17.30;35.50;;;;;;4954862;28;20463;-51
2022/03/24 11:26:28;;;;;;;23.20;16.52;;;17.40;35.70;;;;;;4978196;28;20106;-48
2022/03/24 11:28:56;;;;;;;24.38;17.00;;;17.40;36.00;;;;;;4976586;28;20058;-48
2022/03/24 11:31:28;;;;;;;24.63;18.55;;;17.50;35.50;;;;;;4976650;28;20046;-51
2022/03/24 11:33:58;;;;;;;27.83;17.98;;;17.60;36.00;;;;;;4982869;28;20092;-50
2022/03/24 11:36:25;;;;;;;26.00;19.95;;;17.60;36.10;;;;;;4988134;28;20038;-46
2022/03/24 11:38:58;;;;;;;26.95;18.77;;;17.60;36.20;;;;;;4971541;28;20050;-48
2022/03/24 11:41:35;;;;;;;28.90;20.63;;;17.70;35.00;;;;;;4991028;28;20118;-47
2022/03/24 11:44:07;;;;;;;28.65;19.63;;;17.80;34.80;;;;;;4981002;28;20038;-52
2022/03/24 11:46:55;;;;;;;32.22;20.00;;;17.80;35.40;;;;;;4982391;28;20039;-48
2022/03/24 11:49:24;;;;;;;31.27;20.17;;;17.90;35.10;;;;;;4991184;28;20042;-47
2022/03/24 11:52:10;;;;;;;28.05;21.30;;;17.90;35.00;;;;;;4981233;28;20043;-49
2022/03/24 11:54:39;;;;;;;28.77;19.50;;;18.00;34.40;;;;;;4973345;28;20797;-50
2022/03/24 11:57:22;;;;;;;32.60;19.35;;;18.00;34.80;;;;;;4970797;28;20602;-49
2022/03/24 11:59:49;;;;;;;29.52;20.35;;;18.10;34.20;;;;;;4979118;28;20043;-50
2022/03/24 12:02:19;;;;;;;29.90;21.35;;;18.10;34.50;;;;;;4982754;28;20451;-49
2022/03/24 12:04:48;;;;;;;25.48;19.10;;;18.20;34.00;;;;;;4983757;28;20093;-52
2022/03/24 12:07:17;;;;;;;26.80;20.10;;;18.20;33.90;;;;;;4987553;28;20116;-52
2022/03/24 12:09:58;;;;;;;27.23;19.27;;;18.20;33.40;;;;;;4970650;28;20047;-46
2022/03/24 12:12:26;;;;;;;26.98;20.63;;;18.30;33.10;;;;;;4976078;28;20058;-49
2022/03/24 12:14:54;;;;;;;30.20;21.13;;;18.40;33.80;;;;;;4971185;28;20097;-47
2022/03/24 12:17:31;;;;;;;27.65;19.00;;;18.40;33.10;;;;;;4971021;28;20051;-47
2022/03/24 12:20:00;;;;;;;31.65;21.70;;;18.50;32.40;;;;;;4971895;28;20126;-51
2022/03/24 12:22:28;;;;;;;27.85;20.17;;;18.50;33.00;;;;;;4990132;28;20461;-50
2022/03/24 12:25:01;;;;;;;31.48;20.85;;;18.60;32.60;;;;;;4982270;28;20398;-50
2022/03/24 12:27:30;;;;;;;25.42;17.90;;;18.60;31.80;;;;;;4987303;28;20046;-48
2022/03/24 12:30:11;;;;;;;29.75;20.42;;;18.60;31.80;;;;;;4967808;28;20038;-48
2022/03/24 12:32:39;;;;;;;27.17;18.98;;;18.70;31.90;;;;;;4966020;28;20553;-50
2022/03/24 12:35:07;;;;;;;29.27;21.65;;;18.70;32.40;;;;;;4996410;28;20087;-48
2022/03/24 12:37:34;;;;;;;27.75;19.67;;;18.80;32.60;;;;;;4988305;28;20085;-51
2022/03/24 12:40:09;;;;;;;30.98;21.65;;;18.80;32.50;;;;;;4968285;28;20058;-49
2022/03/24 12:42:54;;;;;;;29.60;21.40;;;18.90;31.40;;;;;;4971524;28;20050;-51
2022/03/24 12:45:27;;;;;;;33.42;23.50;;;19.00;31.40;;;;;;4972896;28;20046;-47